createdAt,value
2022-11-29T00:02:53.215Z,22.35
2022-11-29T00:05:40.932Z,21.23
2022-11-29T00:12:01.125Z,24.20
2022-11-29T00:14:47.272Z,21.42
2022-11-29T00:17:33.265Z,21.98
2022-11-29T00:20:19.528Z,24.23
2022-11-29T00:23:05.447Z,21.20
2022-11-29T00:25:52.345Z,21.23
2022-11-29T00:28:38.360Z,23.23
2022-11-29T00:31:25.642Z,21.08
2022-11-29T00:34:12.052Z,21.75
2022-11-29T00:36:58.127Z,23.02
2022-11-29T00:39:43.767Z,22.08
2022-11-29T00:42:29.928Z,21.17
2022-11-29T00:45:15.927Z,21.98
2022-11-29T00:48:02.123Z,21.42
2022-11-29T00:50:47.543Z,22.38
2022-11-29T00:53:34.388Z,23.90
2022-11-29T00:56:20.178Z,21.25
2022-11-29T00:59:06.324Z,21.35
2022-11-29T01:01:52.039Z,21.85
2022-11-29T01:04:38.267Z,21.20
2022-11-29T01:07:24.288Z,19.77
2022-11-29T01:10:10.265Z,18.95
2022-11-29T01:12:55.940Z,19.80
2022-11-29T01:15:42.099Z,19.15
2022-11-29T01:18:28.029Z,19.95
2022-11-29T01:21:16.667Z,20.92
2022-11-29T01:24:02.761Z,20.38
2022-11-29T01:26:48.793Z,21.80
2022-11-29T01:29:34.568Z,19.67
2022-11-29T01:32:20.557Z,22.88
2022-11-29T01:35:06.945Z,21.02
2022-11-29T01:37:52.719Z,18.45
2022-11-29T01:40:38.529Z,20.52
2022-11-29T01:43:24.720Z,20.48
2022-11-29T01:45:59.896Z,20.17
2022-11-29T01:48:29.872Z,19.10
2022-11-29T01:50:59.586Z,18.65
2022-11-29T01:53:27.796Z,18.08
2022-11-29T01:55:57.680Z,18.13
2022-11-29T01:58:25.327Z,18.25
2022-11-29T02:07:32.808Z,18.08
2022-11-29T02:10:03.597Z,18.52
2022-11-29T02:12:36.687Z,18.45
2022-11-29T02:15:22.922Z,18.90
2022-11-29T02:18:11.353Z,18.38
2022-11-29T02:20:59.257Z,19.27
2022-11-29T02:23:45.461Z,17.75
2022-11-29T02:26:31.678Z,19.33
2022-11-29T02:29:11.098Z,17.98
2022-11-29T02:31:53.834Z,18.77
2022-11-29T02:34:44.704Z,16.92
2022-11-29T02:37:24.840Z,17.65
2022-11-29T02:39:52.258Z,16.48
2022-11-29T02:42:38.451Z,16.05
2022-11-29T02:45:05.741Z,16.27
2022-11-29T02:47:33.302Z,15.50
2022-11-29T02:50:17.958Z,15.88
2022-11-29T02:52:57.601Z,15.93
2022-11-29T02:55:28.674Z,15.68
2022-11-29T02:58:14.836Z,15.88
2022-11-29T03:00:47.824Z,15.55
2022-11-29T03:03:21.363Z,14.98
2022-11-29T03:06:04.202Z,16.10
2022-11-29T03:08:41.218Z,14.13
2022-11-29T03:11:34.557Z,14.18
2022-11-29T03:14:24.131Z,14.25
2022-11-29T03:16:59.624Z,13.65
2022-11-29T03:19:43.829Z,12.82
2022-11-29T03:22:11.130Z,14.48
2022-11-29T03:24:41.622Z,14.52
2022-11-29T03:27:22.488Z,13.18
2022-11-29T03:29:50.093Z,14.10
2022-11-29T03:32:20.759Z,15.07
2022-11-29T03:34:51.733Z,15.80
2022-11-29T03:37:41.852Z,14.20
2022-11-29T03:40:12.609Z,13.98
2022-11-29T03:42:48.750Z,14.07
2022-11-29T03:45:21.216Z,13.45
2022-11-29T03:47:48.561Z,15.18
2022-11-29T03:50:19.306Z,13.75
2022-11-29T03:52:46.624Z,14.95
2022-11-29T03:55:46.656Z,15.48
2022-11-29T03:58:14.078Z,14.55
2022-11-29T04:00:47.506Z,15.43
2022-11-29T04:03:22.680Z,15.20
2022-11-29T04:05:55.201Z,14.35
2022-11-29T04:08:22.496Z,15.93
2022-11-29T04:10:52.828Z,16.45
2022-11-29T04:13:20.172Z,17.00
2022-11-29T04:15:56.691Z,16.67
2022-11-29T04:18:39.041Z,15.35
2022-11-29T04:21:21.735Z,16.20
2022-11-29T04:24:00.918Z,16.65
2022-11-29T04:26:38.152Z,16.60
2022-11-29T04:29:08.370Z,16.00
2022-11-29T04:31:47.807Z,16.83
2022-11-29T04:34:27.327Z,16.85
2022-11-29T04:37:08.178Z,15.43
2022-11-29T04:39:50.481Z,15.93
2022-11-29T04:45:03.656Z,17.77
2022-11-29T04:47:31.345Z,17.85
2022-11-29T04:50:10.667Z,18.90
2022-11-29T04:52:38.377Z,18.13
2022-11-29T04:55:30.718Z,18.80
2022-11-29T04:58:20.950Z,17.85
2022-11-29T05:00:54.502Z,19.48
2022-11-29T05:03:31.177Z,18.85
2022-11-29T05:06:20.030Z,20.42
2022-11-29T05:08:54.824Z,18.17
2022-11-29T05:11:28.313Z,18.58
2022-11-29T05:13:58.798Z,19.52
2022-11-29T05:16:44.667Z,19.27
2022-11-29T05:19:29.147Z,18.10
2022-11-29T05:21:59.330Z,19.35
2022-11-29T05:24:45.735Z,18.20
2022-11-29T05:27:18.098Z,18.85
2022-11-29T05:32:31.332Z,19.42
2022-11-29T05:35:13.901Z,19.60
2022-11-29T05:38:16.471Z,18.08
2022-11-29T05:40:46.172Z,18.52
2022-11-29T05:43:32.044Z,17.73
2022-11-29T05:46:08.606Z,19.70
2022-11-29T05:48:38.716Z,17.08
2022-11-29T05:51:25.021Z,16.73
2022-11-29T05:54:04.136Z,19.48
2022-11-29T05:56:45.792Z,20.08
2022-11-29T05:59:15.395Z,19.65
2022-11-29T06:01:48.802Z,19.85
2022-11-29T06:04:16.158Z,19.60
2022-11-29T06:06:46.903Z,18.88
2022-11-29T06:09:26.888Z,18.48
2022-11-29T06:12:00.785Z,18.27
2022-11-29T06:14:41.461Z,18.17
2022-11-29T06:17:19.485Z,18.42
2022-11-29T06:19:49.709Z,17.55
2022-11-29T06:22:20.056Z,19.23
2022-11-29T06:25:02.423Z,17.02
2022-11-29T06:27:32.788Z,18.08
2022-11-29T06:30:02.909Z,18.92
2022-11-29T06:32:49.399Z,17.80
2022-11-29T06:35:32.391Z,19.00
2022-11-29T06:38:03.166Z,18.23
2022-11-29T06:43:50.653Z,17.67
2022-11-29T06:46:20.869Z,18.38
2022-11-29T06:48:56.606Z,18.05
2022-11-29T06:51:46.377Z,19.83
2022-11-29T06:54:23.610Z,18.73
2022-11-29T06:57:11.234Z,19.50
2022-11-29T06:59:47.779Z,19.67
2022-11-29T07:05:31.102Z,20.25
2022-11-29T07:08:02.233Z,17.75
2022-11-29T07:17:23.689Z,20.90
2022-11-29T07:20:09.830Z,20.05
2022-11-29T07:22:40.564Z,21.15
2022-11-29T07:25:26.613Z,18.40
2022-11-29T07:28:12.196Z,18.88
2022-11-29T07:30:51.485Z,17.77
2022-11-29T07:33:37.597Z,19.23
2022-11-29T07:36:23.200Z,17.10
2022-11-29T07:42:29.228Z,17.63
2022-11-29T07:45:02.720Z,19.00
2022-11-29T07:47:35.347Z,19.02
2022-11-29T07:50:03.912Z,17.70
2022-11-29T07:52:31.299Z,17.70
2022-11-29T07:54:58.967Z,16.40
2022-11-29T07:57:26.339Z,15.30
2022-11-29T07:59:53.905Z,20.20
2022-11-29T08:02:30.962Z,18.58
2022-11-29T08:04:58.748Z,16.92
2022-11-29T08:07:26.176Z,18.30
2022-11-29T08:09:54.000Z,16.80
2022-11-29T08:12:21.334Z,17.42
2022-11-29T08:14:49.012Z,17.98
2022-11-29T08:17:16.426Z,18.05
2022-11-29T08:19:44.285Z,17.10
2022-11-29T08:22:12.449Z,16.27
2022-11-29T08:24:40.114Z,16.38
2022-11-29T08:27:07.441Z,17.92
2022-11-29T08:29:35.124Z,18.15
2022-11-29T08:39:05.985Z,17.48
2022-11-29T08:41:35.012Z,17.88
2022-11-29T08:44:04.236Z,15.95
2022-11-29T08:46:31.646Z,16.95
2022-11-29T08:48:59.337Z,15.88
2022-11-29T08:51:26.639Z,16.85
2022-11-29T08:53:54.277Z,17.25
2022-11-29T08:57:10.209Z,17.35
2022-11-29T08:59:09.219Z,17.55
2022-11-29T09:01:36.630Z,16.23
2022-11-29T09:04:04.367Z,17.05
2022-11-29T09:06:32.836Z,16.92
2022-11-29T09:09:27.733Z,16.80
2022-11-29T09:11:55.102Z,18.30
2022-11-29T09:14:22.800Z,19.85
2022-11-29T09:16:50.190Z,17.58
2022-11-29T09:19:17.805Z,20.00
2022-11-29T09:21:45.136Z,17.17
2022-11-29T09:24:13.072Z,18.77
2022-11-29T09:26:40.444Z,17.45
2022-11-29T09:29:08.720Z,16.73
2022-11-29T09:31:36.105Z,17.33
2022-11-29T09:34:04.099Z,16.08
2022-11-29T09:36:31.571Z,18.88
2022-11-29T09:39:00.700Z,18.52
2022-11-29T09:41:36.909Z,18.55
2022-11-29T09:44:04.482Z,17.70
2022-11-29T09:46:31.807Z,17.60
2022-11-29T09:48:59.382Z,16.95
2022-11-29T09:51:45.330Z,17.52
2022-11-29T09:54:12.990Z,19.40
2022-11-29T09:56:51.659Z,17.85
2022-11-29T09:59:27.518Z,18.67
2022-11-29T10:01:58.690Z,16.23
2022-11-29T10:04:29.332Z,24.50
2022-11-29T10:07:05.390Z,19.95
2022-11-29T10:09:34.118Z,15.23
2022-11-29T10:15:44.388Z,15.88
2022-11-29T10:18:23.707Z,15.57
2022-11-29T10:20:52.401Z,15.88
2022-11-29T10:23:22.839Z,15.65
2022-11-29T10:25:51.832Z,17.95
2022-11-29T10:28:21.402Z,16.58
2022-11-29T10:30:50.340Z,15.82
2022-11-29T10:33:20.215Z,15.38
2022-11-29T10:35:48.412Z,12.15
2022-11-29T10:38:30.881Z,15.45
2022-11-29T10:41:05.810Z,17.23
2022-11-29T10:43:33.506Z,15.60
2022-11-29T10:46:00.968Z,16.52
2022-11-29T10:48:30.200Z,14.13
2022-11-29T10:50:57.874Z,16.92
2022-11-29T10:53:27.221Z,14.57
2022-11-29T10:59:24.152Z,16.27
2022-11-29T11:01:52.056Z,16.40
2022-11-29T11:04:27.327Z,15.55
2022-11-29T11:06:56.827Z,16.13
2022-11-29T11:09:30.029Z,14.65
2022-11-29T11:11:58.700Z,15.80
2022-11-29T11:14:36.678Z,15.68
2022-11-29T11:17:24.040Z,16.65
2022-11-29T11:20:00.407Z,15.45
2022-11-29T11:22:29.518Z,19.05
2022-11-29T11:25:01.654Z,17.25
2022-11-29T11:27:33.878Z,16.60
2022-11-29T11:30:02.366Z,14.63
2022-11-29T11:32:30.199Z,16.92
2022-11-29T11:34:59.492Z,14.25
2022-11-29T11:37:28.902Z,13.07
2022-11-29T11:39:57.515Z,13.68
2022-11-29T11:42:28.702Z,15.20
2022-11-29T11:44:56.094Z,15.68
2022-11-29T11:47:25.134Z,14.82
2022-11-29T11:50:01.584Z,12.32
2022-11-29T11:52:50.876Z,14.75
2022-11-29T11:55:21.089Z,12.85
2022-11-29T11:57:57.642Z,11.35
2022-11-29T12:01:03.007Z,11.75
2022-11-29T12:03:32.403Z,13.90
2022-11-29T12:06:18.252Z,11.07
2022-11-29T12:08:47.494Z,12.43
2022-11-29T12:11:17.136Z,14.10
2022-11-29T12:13:47.765Z,11.68
2022-11-29T12:16:19.131Z,12.68
2022-11-29T12:22:48.331Z,12.52
2022-11-29T12:25:27.131Z,12.13
2022-11-29T12:27:54.562Z,12.00
2022-11-29T12:30:22.230Z,13.80
2022-11-29T12:32:55.790Z,13.18
2022-11-29T12:35:23.439Z,17.80
2022-11-29T12:38:09.320Z,20.23
2022-11-29T12:40:39.676Z,11.88
2022-11-29T12:43:15.928Z,12.02
2022-11-29T12:45:58.203Z,11.60
2022-11-29T12:48:33.994Z,24.23
2022-11-29T12:51:16.305Z,13.25
2022-11-29T12:53:53.729Z,14.98
2022-11-29T12:56:26.672Z,12.13
2022-11-29T12:58:59.893Z,10.90
2022-11-29T13:01:46.124Z,12.77
2022-11-29T13:04:22.477Z,11.48
2022-11-29T13:07:05.668Z,13.13
2022-11-29T13:09:44.510Z,11.75
2022-11-29T13:12:12.177Z,10.10
2022-11-29T13:14:50.877Z,11.07
2022-11-29T13:17:18.524Z,14.43
2022-11-29T13:20:16.428Z,11.63
2022-11-29T13:22:52.193Z,12.25
2022-11-29T13:25:28.731Z,10.75
2022-11-29T13:27:59.963Z,12.90
2022-11-29T13:30:27.347Z,11.50
2022-11-29T13:32:58.204Z,11.73
2022-11-29T13:35:41.809Z,12.32
2022-11-29T13:38:27.940Z,12.18
2022-11-29T13:41:13.895Z,12.45
2022-11-29T13:43:45.560Z,11.85
2022-11-29T13:46:19.746Z,12.82
2022-11-29T13:48:48.937Z,14.23
2022-11-29T13:51:23.720Z,13.50
2022-11-29T13:53:51.589Z,15.50
2022-11-29T13:56:35.626Z,16.05
2022-11-29T13:59:07.756Z,14.35
2022-11-29T14:01:43.498Z,12.50
2022-11-29T14:04:25.619Z,12.75
2022-11-29T14:07:06.691Z,13.30
2022-11-29T14:09:37.117Z,12.95
2022-11-29T14:12:17.599Z,11.60
2022-11-29T14:14:50.763Z,11.15
2022-11-29T14:20:39.937Z,11.95
2022-11-29T14:23:07.214Z,11.25
2022-11-29T14:25:51.208Z,11.40
2022-11-29T14:28:22.423Z,11.38
2022-11-29T14:31:12.775Z,12.80
2022-11-29T14:33:55.340Z,15.57
2022-11-29T14:39:56.772Z,11.07
2022-11-29T14:42:27.162Z,12.02
2022-11-29T14:48:27.354Z,10.65
2022-11-29T14:51:13.342Z,9.85
2022-11-29T14:53:41.457Z,11.20
2022-11-29T14:56:27.852Z,9.65
2022-11-29T14:59:13.750Z,11.15
2022-11-29T15:01:45.530Z,11.07
2022-11-29T15:04:13.348Z,12.50
2022-11-29T15:06:47.478Z,12.02
2022-11-29T15:09:22.584Z,10.85
2022-11-29T15:11:57.623Z,11.93
2022-11-29T15:14:24.995Z,10.82
2022-11-29T15:20:24.543Z,11.93
2022-11-29T15:26:24.158Z,11.30
2022-11-29T15:28:51.946Z,10.50
2022-11-29T15:31:22.510Z,11.13
2022-11-29T15:33:50.403Z,10.70
2022-11-29T15:36:18.850Z,11.45
2022-11-29T15:38:47.895Z,11.80
2022-11-29T15:41:26.056Z,11.60
2022-11-29T15:43:57.126Z,11.00
2022-11-29T15:46:25.780Z,11.00
2022-11-29T15:48:53.754Z,11.40
2022-11-29T15:51:31.297Z,11.07
2022-11-29T15:54:11.712Z,10.00
2022-11-29T15:56:45.663Z,11.80
2022-11-29T15:59:41.409Z,10.82
2022-11-29T16:08:49.613Z,11.13
2022-11-29T16:11:19.812Z,10.13
2022-11-29T16:13:58.978Z,10.25
2022-11-29T16:16:27.229Z,10.70
2022-11-29T16:19:07.920Z,10.68
2022-11-29T16:21:35.579Z,11.73
2022-11-29T16:24:13.425Z,10.63
2022-11-29T16:26:43.351Z,10.80
2022-11-29T16:29:20.643Z,9.43
2022-11-29T16:31:48.328Z,11.13
2022-11-29T16:34:41.797Z,9.65
2022-11-29T16:37:23.222Z,10.07
2022-11-29T16:39:51.893Z,10.52
2022-11-29T16:42:26.793Z,11.50
2022-11-29T16:45:00.116Z,10.50
2022-11-29T16:47:31.611Z,12.27
2022-11-29T16:50:01.754Z,12.93
2022-11-29T16:52:31.501Z,12.68
2022-11-29T16:54:58.857Z,15.23
2022-11-29T16:57:27.286Z,20.65
2022-11-29T16:59:54.615Z,25.90
2022-11-29T17:02:22.467Z,22.63
2022-11-29T17:04:50.695Z,25.13
2022-11-29T17:07:22.159Z,25.88
2022-11-29T17:09:49.542Z,26.00
2022-11-29T17:12:33.309Z,26.13
2022-11-29T17:15:00.719Z,26.90
2022-11-29T17:20:56.789Z,32.58
2022-11-29T17:23:24.440Z,29.30
2022-11-29T17:26:02.189Z,28.65
2022-11-29T17:28:29.813Z,30.30
2022-11-29T17:30:57.128Z,32.97
2022-11-29T17:33:24.793Z,29.92
2022-11-29T17:35:52.154Z,28.80
2022-11-29T17:38:19.746Z,26.05
2022-11-29T17:40:47.087Z,23.60
2022-11-29T17:43:14.675Z,25.85
2022-11-29T17:45:42.041Z,24.88
2022-11-29T17:48:09.680Z,26.80
2022-11-29T17:50:38.061Z,28.70
2022-11-29T17:53:05.680Z,25.90
2022-11-29T17:55:33.018Z,38.83
2022-11-29T17:58:00.658Z,37.22
2022-11-29T18:00:28.014Z,38.50
2022-11-29T18:02:55.626Z,44.17
2022-11-29T18:05:22.950Z,31.52
2022-11-29T18:07:50.658Z,28.80
2022-11-29T18:10:17.985Z,31.83
2022-11-29T18:12:45.600Z,28.17
2022-11-29T18:15:12.978Z,28.35
2022-11-29T18:17:40.612Z,26.02
2022-11-29T18:20:08.170Z,28.48
2022-11-29T18:22:35.761Z,30.20
2022-11-29T18:25:36.470Z,32.00
2022-11-29T18:27:50.831Z,29.73
2022-11-29T18:30:18.221Z,22.35
2022-11-29T18:32:45.834Z,24.77
2022-11-29T18:35:13.183Z,27.15
2022-11-29T18:38:13.544Z,26.15
2022-11-29T18:40:28.121Z,23.48
2022-11-29T18:42:55.746Z,21.27
2022-11-29T18:45:23.095Z,24.50
2022-11-29T18:47:50.755Z,24.23
2022-11-29T18:50:18.061Z,23.70
2022-11-29T18:52:45.651Z,24.08
2022-11-29T18:55:12.968Z,23.35
2022-11-29T18:57:40.672Z,23.50
2022-11-29T19:00:08.387Z,23.65
2022-11-29T19:02:52.148Z,21.33
2022-11-29T19:05:19.537Z,22.55
2022-11-29T19:11:19.594Z,23.10
2022-11-29T19:13:47.684Z,25.13
2022-11-29T19:16:16.837Z,23.88
2022-11-29T19:18:45.027Z,23.63
2022-11-29T19:21:16.234Z,23.48
2022-11-29T19:23:44.303Z,24.97
2022-11-29T19:26:12.846Z,23.13
2022-11-29T19:28:41.595Z,24.92
2022-11-29T19:31:10.215Z,21.88
2022-11-29T19:33:38.626Z,25.98
2022-11-29T19:36:19.010Z,22.48
2022-11-29T19:38:52.987Z,25.30
2022-11-29T19:41:20.922Z,25.55
2022-11-29T19:43:49.060Z,26.30
2022-11-29T19:46:17.798Z,29.75
2022-11-29T19:48:45.709Z,30.27
2022-11-29T19:51:13.719Z,27.42
2022-11-29T19:53:41.368Z,29.90
2022-11-29T19:56:10.532Z,32.42
2022-11-29T19:58:38.139Z,33.05
2022-11-29T20:01:06.351Z,30.55
2022-11-29T20:03:33.994Z,36.17
2022-11-29T20:06:01.709Z,29.98
2022-11-29T20:08:29.650Z,29.55
2022-11-29T20:11:04.097Z,28.25
2022-11-29T20:13:31.895Z,26.85
2022-11-29T20:16:03.442Z,31.05
2022-11-29T20:18:31.901Z,30.27
2022-11-29T20:21:21.665Z,31.33
2022-11-29T20:23:49.694Z,31.10
2022-11-29T20:26:17.997Z,30.77
2022-11-29T20:28:46.610Z,33.33
2022-11-29T20:31:15.673Z,36.03
2022-11-29T20:33:44.263Z,32.90
2022-11-29T20:36:11.642Z,31.23
2022-11-29T20:38:51.143Z,32.38
2022-11-29T20:41:24.231Z,30.25
2022-11-29T20:43:59.369Z,34.63
2022-11-29T20:46:26.835Z,32.88
2022-11-29T20:48:55.119Z,37.40
2022-11-29T20:51:26.259Z,31.05
2022-11-29T20:53:53.918Z,33.67
2022-11-29T20:56:21.265Z,33.13
2022-11-29T20:58:48.835Z,36.97
2022-11-29T21:01:16.324Z,38.35
2022-11-29T21:03:44.004Z,36.33
2022-11-29T21:06:11.465Z,37.72
2022-11-29T21:08:39.031Z,35.50
2022-11-29T21:11:07.690Z,37.03
2022-11-29T21:13:35.473Z,34.42
2022-11-29T21:16:03.218Z,32.58
2022-11-29T21:18:31.246Z,36.03
2022-11-29T21:20:58.585Z,38.35
2022-11-29T21:23:46.844Z,36.22
2022-11-29T21:26:20.387Z,35.78
2022-11-29T21:28:59.698Z,34.13
2022-11-29T21:31:27.274Z,36.67
2022-11-29T21:33:55.008Z,36.50
2022-11-29T21:36:25.017Z,36.33
2022-11-29T21:38:55.265Z,40.30
2022-11-29T21:41:23.159Z,39.13
2022-11-29T21:44:06.165Z,39.22
2022-11-29T21:46:34.783Z,37.22
2022-11-29T21:49:02.466Z,38.45
2022-11-29T21:51:29.851Z,38.05
2022-11-29T21:53:57.423Z,37.85
2022-11-29T21:56:24.736Z,36.45
2022-11-29T21:58:52.411Z,38.90
2022-11-29T22:01:20.181Z,36.05
2022-11-29T22:04:09.700Z,39.55
2022-11-29T22:06:37.028Z,44.63
2022-11-29T22:09:04.860Z,37.22
2022-11-29T22:11:32.262Z,37.38
2022-11-29T22:14:01.132Z,34.70
2022-11-29T22:19:55.948Z,35.35
2022-11-29T22:22:27.097Z,37.30
2022-11-29T22:27:22.733Z,38.83
2022-11-29T22:29:50.364Z,38.47
2022-11-29T22:32:17.778Z,36.95
2022-11-29T22:34:45.655Z,34.85
2022-11-29T22:37:15.345Z,35.25
2022-11-29T22:39:42.914Z,33.88
2022-11-29T22:42:10.255Z,38.38
2022-11-29T22:44:37.857Z,34.33
2022-11-29T22:47:05.244Z,35.50
2022-11-29T22:49:32.952Z,35.65
2022-11-29T22:52:00.321Z,36.05
2022-11-29T22:54:28.058Z,34.60
2022-11-29T22:56:55.403Z,35.17
2022-11-29T22:59:23.030Z,35.20
2022-11-29T23:01:50.489Z,34.88
2022-11-29T23:04:18.150Z,34.80
2022-11-29T23:06:45.749Z,35.88
2022-11-29T23:09:14.938Z,35.60
2022-11-29T23:11:43.073Z,34.60
2022-11-29T23:14:10.744Z,36.22
2022-11-29T23:16:38.248Z,38.50
2022-11-29T23:19:05.906Z,33.10
2022-11-29T23:21:34.687Z,35.92
2022-11-29T23:24:02.512Z,36.60
2022-11-29T23:26:32.624Z,35.97
2022-11-29T23:29:00.233Z,36.00
2022-11-29T23:31:29.168Z,35.97
2022-11-29T23:33:56.758Z,35.70
2022-11-29T23:36:24.197Z,36.30
2022-11-29T23:38:51.872Z,34.70
2022-11-29T23:41:19.294Z,34.90
2022-11-29T23:43:46.988Z,32.70
2022-11-29T23:46:16.231Z,34.05
2022-11-29T23:48:43.989Z,34.03
2022-11-29T23:51:11.912Z,36.05
2022-11-29T23:53:39.973Z,36.08
2022-11-29T23:56:12.529Z,34.22
2022-11-29T23:58:40.212Z,36.50
